Time;durP1;ratioP1;P1;durP2;ratioP2;P2;SDS_P1;SDS_P2;PMS_P1;PMS_P2;Temp;Humidity;BMP_temperature;BMP_pressure;BME280_temperature;BME280_humidity;BME280_pressure;Samples;Min_cycle;Max_cycle;Signal;HPM_P1;HPM_P2
2022/05/26 00:01:48;;;;;;;0.05;0.05;;;;;;;;;;5052081;28;20128;-71
2022/05/26 00:04:17;;;;;;;0.00;0.00;;;;;;;;;;5049259;28;20359;-71
2022/05/26 00:06:45;;;;;;;0.28;0.28;;;;;;;;;;5045237;28;20057;-71
2022/05/26 00:09:14;;;;;;;0.38;0.35;;;;;;;;;;5048606;28;20104;-71
2022/05/26 00:11:44;;;;;;;0.10;0.10;;;;;;;;;;5049753;28;20049;-70
2022/05/26 00:14:13;;;;;;;0.10;0.10;;;;;;;;;;5048626;28;20068;-71
2022/05/26 00:16:43;;;;;;;0.00;0.00;;;;;;;;;;5050277;28;20084;-70
2022/05/26 00:19:12;;;;;;;0.32;0.20;;;;;;;;;;5048867;28;20037;-71
2022/05/26 00:21:41;;;;;;;0.13;0.13;;;;;;;;;;5048128;28;20327;-71
2022/05/26 00:24:09;;;;;;;0.15;0.15;;;;;;;;;;5047646;28;20446;-70
2022/05/26 00:26:37;;;;;;;0.40;0.40;;;;;;;;;;5049131;28;20080;-70
2022/05/26 00:29:07;;;;;;;0.20;0.20;;;;;;;;;;5049335;28;20136;-71
2022/05/26 00:31:35;;;;;;;0.90;0.20;;;;;;;;;;5049336;28;20072;-70
2022/05/26 00:34:04;;;;;;;0.35;0.35;;;;;;;;;;5046146;28;20071;-69
2022/05/26 00:36:38;;;;;;;0.30;0.30;;;;;;;;;;5050456;28;20049;-74
2022/05/26 00:39:08;;;;;;;4.47;0.40;;;;;;;;;;5047482;28;20045;-71
2022/05/26 00:41:39;;;;;;;0.03;0.03;;;;;;;;;;5049147;28;20089;-71
2022/05/26 00:44:09;;;;;;;0.15;0.10;;;;;;;;;;5048548;28;20479;-72
2022/05/26 00:46:41;;;;;;;0.10;0.10;;;;;;;;;;5050765;28;20081;-71
2022/05/26 00:49:12;;;;;;;0.00;0.00;;;;;;;;;;5048963;28;20051;-72
2022/05/26 00:51:40;;;;;;;0.20;0.20;;;;;;;;;;5051223;28;20143;-72
2022/05/26 00:54:10;;;;;;;0.00;0.00;;;;;;;;;;5047400;28;20049;-72
2022/05/26 00:56:42;;;;;;;0.10;0.10;;;;;;;;;;5048667;28;20103;-72
2022/05/26 00:59:16;;;;;;;0.22;0.22;;;;;;;;;;5048775;28;20132;-71
2022/05/26 01:01:44;;;;;;;0.00;0.00;;;;;;;;;;5048327;28;20567;-71
2022/05/26 01:04:14;;;;;;;0.10;0.10;;;;;;;;;;5047056;28;20037;-71
2022/05/26 01:06:46;;;;;;;0.10;0.10;;;;;;;;;;5045785;28;20084;-72
2022/05/26 01:09:14;;;;;;;0.10;0.10;;;;;;;;;;5048588;28;20489;-71
2022/05/26 01:11:44;;;;;;;0.30;0.30;;;;;;;;;;5049368;28;20085;-71
2022/05/26 01:14:15;;;;;;;0.10;0.10;;;;;;;;;;5044190;28;20144;-71
2022/05/26 01:16:51;;;;;;;0.13;0.13;;;;;;;;;;5046922;28;20124;-71
2022/05/26 01:19:27;;;;;;;0.13;0.13;;;;;;;;;;5047761;28;20139;-71
2022/05/26 01:21:58;;;;;;;0.10;0.10;;;;;;;;;;5049949;28;20136;-72
2022/05/26 01:24:48;;;;;;;0.45;0.30;;;;;;;;;;5047187;28;20045;-71
2022/05/26 01:27:28;;;;;;;1.65;0.30;;;;;;;;;;5045178;28;20124;-71
2022/05/26 01:30:11;;;;;;;0.20;0.20;;;;;;;;;;5043965;28;20095;-71
2022/05/26 01:33:00;;;;;;;0.15;0.15;;;;;;;;;;5047535;28;20045;-71
2022/05/26 01:35:31;;;;;;;0.15;0.15;;;;;;;;;;5046033;28;20076;-71
2022/05/26 01:38:07;;;;;;;1.50;0.68;;;;;;;;;;5048476;28;20076;-71
2022/05/26 01:40:38;;;;;;;0.10;0.10;;;;;;;;;;5048771;28;20076;-71
2022/05/26 01:43:10;;;;;;;0.52;0.10;;;;;;;;;;5046861;28;20140;-71
2022/05/26 01:45:41;;;;;;;0.00;0.00;;;;;;;;;;5050049;28;20053;-71
2022/05/26 01:48:15;;;;;;;0.10;0.10;;;;;;;;;;5046193;28;20535;-72
2022/05/26 01:50:45;;;;;;;0.00;0.00;;;;;;;;;;5040118;28;20136;-71
2022/05/26 01:53:21;;;;;;;0.10;0.10;;;;;;;;;;5045248;28;20381;-72
2022/05/26 01:55:53;;;;;;;0.15;0.15;;;;;;;;;;5049028;28;20048;-71
2022/05/26 01:58:25;;;;;;;0.20;0.20;;;;;;;;;;5049054;28;20052;-71
2022/05/26 02:00:54;;;;;;;0.10;0.10;;;;;;;;;;5040555;28;20136;-71
2022/05/26 02:03:25;;;;;;;0.30;0.30;;;;;;;;;;5042186;28;20135;-72
2022/05/26 02:05:55;;;;;;;0.00;0.00;;;;;;;;;;5050175;28;20080;-71
2022/05/26 02:08:25;;;;;;;0.10;0.10;;;;;;;;;;5047390;28;20044;-72
2022/05/26 02:10:55;;;;;;;0.38;0.38;;;;;;;;;;5050718;28;20095;-72
2022/05/26 02:13:27;;;;;;;0.00;0.00;;;;;;;;;;5046878;28;20088;-71
2022/05/26 02:15:58;;;;;;;0.35;0.10;;;;;;;;;;5044848;28;20157;-73
2022/05/26 02:18:30;;;;;;;0.32;0.32;;;;;;;;;;5038109;28;20107;-71
2022/05/26 02:21:00;;;;;;;0.10;0.10;;;;;;;;;;5044465;28;20067;-72
2022/05/26 02:23:30;;;;;;;0.00;0.00;;;;;;;;;;5047359;28;20566;-72
2022/05/26 02:26:00;;;;;;;0.00;0.00;;;;;;;;;;5046604;28;20548;-72
2022/05/26 02:28:28;;;;;;;0.10;0.10;;;;;;;;;;5050231;28;20144;-71
2022/05/26 02:30:56;;;;;;;0.10;0.08;;;;;;;;;;5047138;28;20103;-71
2022/05/26 02:33:24;;;;;;;0.20;0.20;;;;;;;;;;5047679;28;20059;-71
2022/05/26 02:35:54;;;;;;;0.35;0.35;;;;;;;;;;5047395;28;20141;-72
2022/05/26 02:38:26;;;;;;;0.00;0.00;;;;;;;;;;5038942;28;20076;-71
2022/05/26 02:40:54;;;;;;;0.13;0.13;;;;;;;;;;5044920;28;20419;-71
2022/05/26 02:43:24;;;;;;;0.10;0.10;;;;;;;;;;5045059;28;20071;-71
2022/05/26 02:46:01;;;;;;;0.13;0.13;;;;;;;;;;5050125;28;20049;-74
2022/05/26 02:48:37;;;;;;;1.15;0.38;;;;;;;;;;5046734;28;20041;-71
2022/05/26 02:51:17;;;;;;;0.10;0.10;;;;;;;;;;5049026;28;20099;-71
2022/05/26 02:53:46;;;;;;;0.15;0.15;;;;;;;;;;5046147;28;20519;-71
2022/05/26 02:56:19;;;;;;;0.00;0.00;;;;;;;;;;5037985;28;20044;-71
2022/05/26 02:58:57;;;;;;;0.10;0.10;;;;;;;;;;5046300;28;20087;-71
2022/05/26 03:01:33;;;;;;;0.10;0.10;;;;;;;;;;5049838;28;20106;-71
2022/05/26 03:04:05;;;;;;;0.13;0.13;;;;;;;;;;5045229;28;20053;-72
2022/05/26 03:06:37;;;;;;;0.17;0.17;;;;;;;;;;5043058;28;20077;-71
2022/05/26 03:09:07;;;;;;;0.32;0.32;;;;;;;;;;5046355;28;20128;-72
2022/05/26 03:11:44;;;;;;;0.40;0.20;;;;;;;;;;5049773;28;20164;-71
2022/05/26 03:14:12;;;;;;;0.10;0.10;;;;;;;;;;5050062;28;20075;-71
2022/05/26 03:16:40;;;;;;;0.10;0.10;;;;;;;;;;5052023;28;20128;-71
2022/05/26 03:19:09;;;;;;;0.88;0.60;;;;;;;;;;5051108;28;20088;-71
2022/05/26 03:21:39;;;;;;;0.15;0.15;;;;;;;;;;5050694;28;20088;-72
2022/05/26 03:24:07;;;;;;;1.35;0.38;;;;;;;;;;5048510;28;20045;-71
2022/05/26 03:26:36;;;;;;;0.10;0.10;;;;;;;;;;5050383;28;20055;-72
2022/05/26 03:29:04;;;;;;;1.75;0.52;;;;;;;;;;5040711;28;20058;-72
2022/05/26 03:31:33;;;;;;;0.17;0.10;;;;;;;;;;5043933;28;20567;-71
2022/05/26 03:42:21;;;;;;;0.10;0.10;;;;;;;;;;5048275;28;20092;-71
2022/05/26 03:44:50;;;;;;;0.68;0.32;;;;;;;;;;5049165;28;20088;-70
2022/05/26 03:47:18;;;;;;;0.35;0.35;;;;;;;;;;5049711;28;20570;-70
2022/05/26 03:49:46;;;;;;;0.73;0.38;;;;;;;;;;5050185;28;20508;-70
2022/05/26 03:52:17;;;;;;;0.10;0.10;;;;;;;;;;5051481;28;20433;-72
2022/05/26 03:54:45;;;;;;;1.45;0.30;;;;;;;;;;5050571;28;20135;-69
2022/05/26 03:57:13;;;;;;;0.25;0.20;;;;;;;;;;5049674;28;20143;-69
2022/05/26 03:59:42;;;;;;;0.20;0.20;;;;;;;;;;5050621;28;20077;-73
2022/05/26 04:02:10;;;;;;;0.10;0.10;;;;;;;;;;5037609;28;20195;-70
2022/05/26 04:04:38;;;;;;;1.35;0.30;;;;;;;;;;5045504;28;20047;-70
2022/05/26 04:07:06;;;;;;;0.30;0.30;;;;;;;;;;5046104;28;20063;-70
2022/05/26 04:09:36;;;;;;;1.27;0.40;;;;;;;;;;5049154;28;20048;-70
2022/05/26 04:12:05;;;;;;;0.10;0.10;;;;;;;;;;5051359;28;20139;-70
2022/05/26 04:14:33;;;;;;;0.10;0.10;;;;;;;;;;5050631;28;20127;-71
2022/05/26 04:17:01;;;;;;;0.70;0.55;;;;;;;;;;5049086;28;20140;-71
2022/05/26 04:19:30;;;;;;;0.10;0.10;;;;;;;;;;5047906;28;20659;-70
2022/05/26 04:22:17;;;;;;;0.10;0.10;;;;;;;;;;5040960;28;20044;-72
2022/05/26 04:24:48;;;;;;;0.10;0.10;;;;;;;;;;5042736;28;20500;-69
2022/05/26 04:27:17;;;;;;;0.10;0.10;;;;;;;;;;5046622;28;20137;-70
2022/05/26 04:29:45;;;;;;;0.10;0.10;;;;;;;;;;5050196;28;20079;-69
2022/05/26 04:32:14;;;;;;;0.10;0.10;;;;;;;;;;5049346;28;20099;-71
2022/05/26 04:34:45;;;;;;;2.78;0.50;;;;;;;;;;5050640;28;20083;-71
2022/05/26 04:37:13;;;;;;;0.10;0.10;;;;;;;;;;5048248;28;20049;-70
2022/05/26 04:39:42;;;;;;;0.45;0.40;;;;;;;;;;5047458;28;20134;-73
2022/05/26 04:42:12;;;;;;;1.75;0.20;;;;;;;;;;5049092;28;20080;-74
2022/05/26 04:44:41;;;;;;;0.35;0.35;;;;;;;;;;5049779;28;20124;-71
2022/05/26 04:47:09;;;;;;;0.30;0.30;;;;;;;;;;5045878;28;20136;-71
2022/05/26 04:49:38;;;;;;;0.28;0.28;;;;;;;;;;5048671;28;20049;-71
2022/05/26 04:52:06;;;;;;;0.20;0.20;;;;;;;;;;5046927;28;20075;-70
2022/05/26 04:54:36;;;;;;;0.10;0.10;;;;;;;;;;5045566;28;20136;-71
2022/05/26 04:57:05;;;;;;;0.20;0.20;;;;;;;;;;5048218;28;20065;-71
2022/05/26 04:59:35;;;;;;;1.40;0.30;;;;;;;;;;5049959;28;20532;-71
2022/05/26 05:02:04;;;;;;;0.43;0.28;;;;;;;;;;5049767;28;20037;-73
2022/05/26 05:04:32;;;;;;;1.48;0.47;;;;;;;;;;5046657;28;20076;-73
2022/05/26 05:07:01;;;;;;;0.10;0.10;;;;;;;;;;5043760;28;20053;-71
2022/05/26 05:09:29;;;;;;;0.65;0.38;;;;;;;;;;5049994;28;20079;-70
2022/05/26 05:11:57;;;;;;;0.55;0.40;;;;;;;;;;5045403;28;20116;-70
2022/05/26 05:14:26;;;;;;;0.10;0.10;;;;;;;;;;5043236;28;20088;-70
2022/05/26 05:16:55;;;;;;;1.20;0.50;;;;;;;;;;5046447;28;20143;-70
2022/05/26 05:19:24;;;;;;;0.30;0.30;;;;;;;;;;5050898;28;20057;-70
2022/05/26 05:21:54;;;;;;;0.25;0.25;;;;;;;;;;5044785;28;20080;-74
2022/05/26 05:24:25;;;;;;;0.20;0.20;;;;;;;;;;5036732;28;20557;-71
2022/05/26 05:26:59;;;;;;;0.10;0.10;;;;;;;;;;5043317;28;20503;-70
2022/05/26 05:29:31;;;;;;;1.70;0.45;;;;;;;;;;5025666;28;20128;-71
2022/05/26 05:32:03;;;;;;;0.10;0.10;;;;;;;;;;5048769;28;20049;-71
2022/05/26 05:34:33;;;;;;;8.48;0.50;;;;;;;;;;5043832;28;20599;-71
2022/05/26 05:37:07;;;;;;;0.98;0.47;;;;;;;;;;5046060;28;20458;-71
2022/05/26 05:39:36;;;;;;;0.45;0.35;;;;;;;;;;5047266;28;20087;-74
2022/05/26 05:42:05;;;;;;;0.10;0.10;;;;;;;;;;5049836;28;20041;-71
2022/05/26 05:44:33;;;;;;;0.40;0.30;;;;;;;;;;5040764;28;20049;-74
2022/05/26 05:47:04;;;;;;;0.30;0.30;;;;;;;;;;5048045;28;20080;-72
2022/05/26 05:49:33;;;;;;;0.10;0.10;;;;;;;;;;5050383;28;20149;-71
2022/05/26 05:52:05;;;;;;;0.20;0.20;;;;;;;;;;5045074;28;20136;-71
2022/05/26 05:54:34;;;;;;;0.00;0.00;;;;;;;;;;5048273;28;20080;-71
2022/05/26 05:57:02;;;;;;;0.45;0.30;;;;;;;;;;5046698;28;20132;-71
2022/05/26 05:59:30;;;;;;;0.20;0.20;;;;;;;;;;5050622;28;20107;-71
2022/05/26 06:01:59;;;;;;;0.20;0.20;;;;;;;;;;5039597;28;20060;-71
2022/05/26 06:04:49;;;;;;;0.82;0.40;;;;;;;;;;5043245;28;20053;-73
2022/05/26 06:07:18;;;;;;;0.15;0.15;;;;;;;;;;5041868;28;20068;-72
2022/05/26 06:09:47;;;;;;;0.65;0.35;;;;;;;;;;5049476;28;20041;-75
2022/05/26 06:12:17;;;;;;;0.15;0.10;;;;;;;;;;5052108;28;20045;-71
2022/05/26 06:14:46;;;;;;;0.28;0.28;;;;;;;;;;5051601;28;20072;-71
2022/05/26 06:17:15;;;;;;;0.30;0.30;;;;;;;;;;5049587;28;20515;-71
2022/05/26 06:19:44;;;;;;;0.55;0.28;;;;;;;;;;5043599;28;20484;-71
2022/05/26 06:22:17;;;;;;;0.10;0.10;;;;;;;;;;5047016;28;20045;-71
2022/05/26 06:24:45;;;;;;;1.27;0.43;;;;;;;;;;5048430;28;20080;-73
2022/05/26 06:30:01;;;;;;;1.08;0.30;;;;;;;;;;5046231;28;20052;-71
2022/05/26 06:38:09;;;;;;;0.20;0.20;;;;;;;;;;5041775;28;20045;-71
2022/05/26 06:40:37;;;;;;;0.10;0.10;;;;;;;;;;5042742;28;20103;-72
2022/05/26 06:43:06;;;;;;;0.20;0.20;;;;;;;;;;5049919;28;20041;-71
2022/05/26 06:45:36;;;;;;;2.28;0.40;;;;;;;;;;5049975;28;20060;-73
2022/05/26 06:48:05;;;;;;;0.10;0.10;;;;;;;;;;5046548;28;20049;-72
2022/05/26 06:50:33;;;;;;;0.25;0.25;;;;;;;;;;5049151;28;20525;-75
2022/05/26 06:53:02;;;;;;;0.05;0.05;;;;;;;;;;5048993;28;20049;-71
2022/05/26 06:55:31;;;;;;;0.10;0.10;;;;;;;;;;5046170;28;20559;-71
2022/05/26 06:58:00;;;;;;;0.28;0.28;;;;;;;;;;5048533;28;20084;-71
2022/05/26 07:00:28;;;;;;;0.88;0.30;;;;;;;;;;5046679;28;20391;-71
2022/05/26 07:02:56;;;;;;;0.05;0.05;;;;;;;;;;5046862;28;20088;-72
2022/05/26 07:05:25;;;;;;;0.20;0.20;;;;;;;;;;5048631;28;20179;-72
2022/05/26 07:07:54;;;;;;;0.20;0.20;;;;;;;;;;5045545;28;20080;-72
2022/05/26 07:10:23;;;;;;;0.20;0.20;;;;;;;;;;5041507;28;20154;-74
2022/05/26 07:12:53;;;;;;;0.20;0.10;;;;;;;;;;5048102;28;20056;-72
2022/05/26 07:15:21;;;;;;;0.15;0.15;;;;;;;;;;5043673;28;20115;-71
2022/05/26 07:17:50;;;;;;;0.65;0.20;;;;;;;;;;5040850;28;20127;-69
2022/05/26 07:20:18;;;;;;;0.10;0.10;;;;;;;;;;5046845;28;20468;-70
2022/05/26 07:22:47;;;;;;;0.08;0.08;;;;;;;;;;5046737;28;20099;-75
2022/05/26 07:25:15;;;;;;;0.00;0.00;;;;;;;;;;5048279;28;20056;-72
2022/05/26 07:27:43;;;;;;;0.13;0.13;;;;;;;;;;5042001;28;20118;-73
2022/05/26 07:30:14;;;;;;;0.00;0.00;;;;;;;;;;5046450;28;20085;-71
2022/05/26 07:32:42;;;;;;;0.40;0.30;;;;;;;;;;5044412;28;20564;-73
2022/05/26 07:35:10;;;;;;;0.10;0.10;;;;;;;;;;5045934;28;20057;-72
2022/05/26 07:43:16;;;;;;;1.92;0.10;;;;;;;;;;5046220;28;20505;-72
2022/05/26 07:45:46;;;;;;;0.10;0.10;;;;;;;;;;5048874;28;20423;-71
2022/05/26 07:48:15;;;;;;;0.13;0.13;;;;;;;;;;5049233;28;20040;-71
2022/05/26 07:50:43;;;;;;;0.30;0.20;;;;;;;;;;5049662;28;20089;-74
2022/05/26 07:53:11;;;;;;;0.30;0.22;;;;;;;;;;5051763;28;20514;-71
2022/05/26 07:55:42;;;;;;;0.10;0.10;;;;;;;;;;5048787;28;20060;-76
2022/05/26 07:58:11;;;;;;;0.20;0.20;;;;;;;;;;5047216;28;20045;-71
2022/05/26 08:00:40;;;;;;;0.00;0.00;;;;;;;;;;5044284;28;20091;-72
2022/05/26 08:03:10;;;;;;;0.05;0.05;;;;;;;;;;5052954;28;20067;-71
2022/05/26 08:05:38;;;;;;;2.10;0.30;;;;;;;;;;5051080;28;20492;-76
2022/05/26 08:08:07;;;;;;;0.15;0.15;;;;;;;;;;5040386;28;20128;-71
2022/05/26 08:10:35;;;;;;;0.17;0.10;;;;;;;;;;5044405;28;20132;-72
2022/05/26 08:13:04;;;;;;;1.90;0.47;;;;;;;;;;5050930;28;20049;-74
2022/05/26 08:15:32;;;;;;;0.10;0.10;;;;;;;;;;5042156;28;20041;-71
2022/05/26 08:18:00;;;;;;;0.60;0.20;;;;;;;;;;5040417;28;20051;-71
2022/05/26 08:20:30;;;;;;;1.55;0.73;;;;;;;;;;5042043;28;20083;-77
2022/05/26 08:22:58;;;;;;;0.10;0.10;;;;;;;;;;5037985;28;20041;-72
2022/05/26 08:25:29;;;;;;;0.50;0.40;;;;;;;;;;5046207;28;20519;-73
2022/05/26 08:27:57;;;;;;;0.65;0.20;;;;;;;;;;5046576;28;20053;-75
2022/05/26 08:30:25;;;;;;;0.63;0.63;;;;;;;;;;5050545;28;20068;-75
2022/05/26 08:32:54;;;;;;;0.25;0.25;;;;;;;;;;5048254;28;20477;-75
2022/05/26 08:35:24;;;;;;;0.25;0.25;;;;;;;;;;5051371;28;20052;-75
2022/05/26 08:37:53;;;;;;;0.10;0.10;;;;;;;;;;5051846;28;20071;-75
2022/05/26 08:40:28;;;;;;;0.10;0.10;;;;;;;;;;5051353;28;20083;-74
2022/05/26 08:42:56;;;;;;;2.70;0.65;;;;;;;;;;5050907;28;20048;-75
2022/05/26 08:45:24;;;;;;;0.30;0.28;;;;;;;;;;5049933;28;20106;-75
2022/05/26 08:47:53;;;;;;;0.13;0.10;;;;;;;;;;5051971;28;20057;-74
2022/05/26 08:50:23;;;;;;;0.30;0.22;;;;;;;;;;5046761;28;20072;-72
2022/05/26 08:52:57;;;;;;;0.40;0.15;;;;;;;;;;5041465;28;20084;-73
2022/05/26 08:55:30;;;;;;;0.30;0.30;;;;;;;;;;5039017;28;20069;-73
2022/05/26 08:58:04;;;;;;;0.20;0.20;;;;;;;;;;5045435;28;20056;-72
2022/05/26 09:00:33;;;;;;;0.20;0.20;;;;;;;;;;5046811;28;20048;-72
2022/05/26 09:03:02;;;;;;;0.10;0.10;;;;;;;;;;5042868;28;20044;-72
2022/05/26 09:05:32;;;;;;;0.00;0.00;;;;;;;;;;5044212;28;20079;-72
2022/05/26 09:13:36;;;;;;;0.38;0.17;;;;;;;;;;5044407;28;20103;-72
2022/05/26 09:16:06;;;;;;;0.20;0.20;;;;;;;;;;5044344;28;20123;-72
2022/05/26 09:18:35;;;;;;;0.13;0.10;;;;;;;;;;5046338;28;20111;-72
2022/05/26 09:21:25;;;;;;;0.10;0.10;;;;;;;;;;5048396;28;20053;-72
2022/05/26 09:23:54;;;;;;;0.05;0.05;;;;;;;;;;5043223;28;20568;-72
2022/05/26 09:26:36;;;;;;;0.30;0.15;;;;;;;;;;5035157;28;20084;-73
2022/05/26 09:29:10;;;;;;;0.00;0.00;;;;;;;;;;5042304;28;20049;-73
2022/05/26 09:31:45;;;;;;;0.10;0.10;;;;;;;;;;5046230;28;20539;-72
2022/05/26 09:34:21;;;;;;;0.00;0.00;;;;;;;;;;5044919;28;20424;-73
2022/05/26 09:36:50;;;;;;;0.30;0.20;;;;;;;;;;5040148;28;20060;-73
2022/05/26 09:39:20;;;;;;;0.03;0.03;;;;;;;;;;5044891;28;20146;-73
2022/05/26 09:41:51;;;;;;;0.00;0.00;;;;;;;;;;5042455;28;20134;-73
2022/05/26 09:44:37;;;;;;;0.00;0.00;;;;;;;;;;5045610;28;20489;-73
2022/05/26 09:47:13;;;;;;;0.00;0.00;;;;;;;;;;5035738;28;20049;-74
2022/05/26 09:49:43;;;;;;;0.20;0.10;;;;;;;;;;5041443;28;20076;-73
2022/05/26 09:52:16;;;;;;;0.00;0.00;;;;;;;;;;5043911;28;20095;-73
2022/05/26 09:54:45;;;;;;;0.00;0.00;;;;;;;;;;5043855;28;20053;-73
2022/05/26 09:57:20;;;;;;;1.02;0.52;;;;;;;;;;5045001;28;20041;-73
2022/05/26 09:59:48;;;;;;;0.10;0.10;;;;;;;;;;5036768;28;20140;-73
2022/05/26 10:02:22;;;;;;;2.42;0.10;;;;;;;;;;5045099;28;20125;-73
2022/05/26 10:04:58;;;;;;;0.00;0.00;;;;;;;;;;5043748;28;20098;-73
2022/05/26 10:07:32;;;;;;;0.13;0.10;;;;;;;;;;5036574;28;20044;-74
2022/05/26 10:10:07;;;;;;;0.43;0.20;;;;;;;;;;5041343;28;20745;-74
2022/05/26 10:12:42;;;;;;;0.10;0.10;;;;;;;;;;5046426;28;20080;-73
2022/05/26 10:15:15;;;;;;;0.10;0.10;;;;;;;;;;5042338;28;20496;-73
2022/05/26 10:17:54;;;;;;;0.20;0.20;;;;;;;;;;5044360;28;20064;-72
2022/05/26 10:20:27;;;;;;;0.13;0.13;;;;;;;;;;5038000;28;20053;-73
2022/05/26 10:23:04;;;;;;;0.10;0.10;;;;;;;;;;5044645;28;20731;-73
2022/05/26 10:25:35;;;;;;;0.30;0.13;;;;;;;;;;5039266;28;20131;-73
2022/05/26 10:28:25;;;;;;;0.13;0.10;;;;;;;;;;5045641;28;20045;-72
2022/05/26 10:30:57;;;;;;;0.10;0.10;;;;;;;;;;5045119;28;20049;-72
2022/05/26 10:33:44;;;;;;;0.30;0.20;;;;;;;;;;5044850;28;20058;-73
2022/05/26 10:36:32;;;;;;;0.10;0.10;;;;;;;;;;5029853;28;20508;-73
2022/05/26 10:39:10;;;;;;;1.38;0.38;;;;;;;;;;5037786;28;20527;-71
2022/05/26 10:41:40;;;;;;;0.00;0.00;;;;;;;;;;5047847;28;20049;-70
2022/05/26 10:44:17;;;;;;;0.10;0.10;;;;;;;;;;5048548;28;20496;-71
2022/05/26 10:46:47;;;;;;;0.20;0.10;;;;;;;;;;5047862;28;20041;-70
2022/05/26 10:49:20;;;;;;;0.08;0.08;;;;;;;;;;5047303;28;20059;-70
2022/05/26 10:51:53;;;;;;;0.08;0.08;;;;;;;;;;5045846;28;20092;-71
2022/05/26 10:54:26;;;;;;;0.57;0.13;;;;;;;;;;5047785;28;20049;-71
2022/05/26 10:56:58;;;;;;;0.10;0.08;;;;;;;;;;5045831;28;20496;-70
2022/05/26 10:59:30;;;;;;;0.20;0.13;;;;;;;;;;5012881;28;20517;-71
2022/05/26 11:02:01;;;;;;;1.38;1.27;;;;;;;;;;5049055;28;20529;-70
2022/05/26 11:04:33;;;;;;;0.15;0.15;;;;;;;;;;5047720;28;20055;-70
2022/05/26 11:07:04;;;;;;;0.00;0.00;;;;;;;;;;5038806;28;20076;-69
2022/05/26 11:09:37;;;;;;;0.10;0.10;;;;;;;;;;5048200;28;20128;-70
2022/05/26 11:12:07;;;;;;;0.00;0.00;;;;;;;;;;5048672;28;20080;-71
2022/05/26 11:17:34;;;;;;;0.05;0.05;;;;;;;;;;5045835;28;20152;-72
2022/05/26 11:20:04;;;;;;;0.00;0.00;;;;;;;;;;5047020;28;20049;-71
2022/05/26 11:22:34;;;;;;;0.10;0.10;;;;;;;;;;5047302;28;20044;-71
2022/05/26 11:25:02;;;;;;;3.03;0.30;;;;;;;;;;5045990;28;20080;-71
2022/05/26 11:27:35;;;;;;;1.65;1.35;;;;;;;;;;5047882;28;20049;-71
2022/05/26 11:30:07;;;;;;;0.00;0.00;;;;;;;;;;5053375;28;20103;-71
2022/05/26 11:38:16;;;;;;;0.60;0.20;;;;;;;;;;5050469;28;20090;-71
2022/05/26 11:40:46;;;;;;;0.20;0.10;;;;;;;;;;5050727;28;20049;-70
2022/05/26 11:43:24;;;;;;;0.00;0.00;;;;;;;;;;5051466;28;20091;-71
2022/05/26 11:45:54;;;;;;;0.00;0.00;;;;;;;;;;5053706;28;20037;-71
2022/05/26 11:48:46;;;;;;;0.00;0.00;;;;;;;;;;5052805;28;20048;-70
2022/05/26 11:51:28;;;;;;;0.00;0.00;;;;;;;;;;5041739;28;20083;-71
2022/05/26 11:53:56;;;;;;;0.10;0.10;;;;;;;;;;5050457;28;20061;-70
2022/05/26 11:56:42;;;;;;;0.28;0.28;;;;;;;;;;5047331;28;20134;-70
2022/05/26 11:59:28;;;;;;;0.00;0.00;;;;;;;;;;5042824;28;20079;-71
2022/05/26 12:02:19;;;;;;;0.28;0.13;;;;;;;;;;5047270;28;20420;-71
2022/05/26 12:04:49;;;;;;;0.20;0.20;;;;;;;;;;5043304;28;20052;-71
2022/05/26 12:07:37;;;;;;;0.00;0.00;;;;;;;;;;5046625;28;20053;-71
2022/05/26 12:10:16;;;;;;;0.20;0.10;;;;;;;;;;5042674;28;20045;-72
2022/05/26 12:12:45;;;;;;;0.05;0.00;;;;;;;;;;5050646;28;20044;-71
2022/05/26 12:15:17;;;;;;;0.10;0.10;;;;;;;;;;5048235;28;20130;-71
2022/05/26 12:17:48;;;;;;;0.00;0.00;;;;;;;;;;5032256;28;20123;-70
2022/05/26 12:20:37;;;;;;;0.00;0.00;;;;;;;;;;5043527;28;20056;-70
2022/05/26 12:23:27;;;;;;;0.10;0.10;;;;;;;;;;5049581;28;20118;-71
2022/05/26 12:26:14;;;;;;;0.25;0.10;;;;;;;;;;5048037;28;20041;-71
2022/05/26 12:28:42;;;;;;;0.15;0.15;;;;;;;;;;5047230;28;20112;-72
2022/05/26 12:34:10;;;;;;;0.00;0.00;;;;;;;;;;5043468;28;20049;-71
2022/05/26 12:36:47;;;;;;;0.10;0.10;;;;;;;;;;5051302;28;20459;-72
2022/05/26 12:39:24;;;;;;;0.10;0.10;;;;;;;;;;5049569;28;20053;-72
2022/05/26 12:41:56;;;;;;;0.10;0.10;;;;;;;;;;5052034;28;20053;-71
2022/05/26 12:44:54;;;;;;;0.20;0.20;;;;;;;;;;5049540;28;20049;-71
2022/05/26 12:47:36;;;;;;;0.20;0.10;;;;;;;;;;5050592;28;20041;-71
2022/05/26 12:50:06;;;;;;;0.10;0.05;;;;;;;;;;5041489;28;20392;-72
2022/05/26 12:52:38;;;;;;;0.00;0.00;;;;;;;;;;5045956;28;20052;-72
2022/05/26 12:55:21;;;;;;;0.15;0.08;;;;;;;;;;5049467;28;20451;-72
2022/05/26 12:57:53;;;;;;;0.00;0.00;;;;;;;;;;5050215;28;20045;-70
2022/05/26 13:00:33;;;;;;;0.10;0.10;;;;;;;;;;5051078;28;20053;-71
2022/05/26 13:03:03;;;;;;;0.00;0.00;;;;;;;;;;5046300;28;20584;-71
2022/05/26 13:05:33;;;;;;;0.10;0.10;;;;;;;;;;5045524;28;20051;-71
2022/05/26 13:08:04;;;;;;;0.10;0.10;;;;;;;;;;5038479;28;20147;-72
2022/05/26 13:10:35;;;;;;;0.00;0.00;;;;;;;;;;5044611;28;20095;-72
2022/05/26 13:13:06;;;;;;;0.45;0.20;;;;;;;;;;5044125;28;20088;-71
2022/05/26 13:15:34;;;;;;;0.05;0.00;;;;;;;;;;5039490;28;20080;-72
2022/05/26 13:18:03;;;;;;;0.00;0.00;;;;;;;;;;5046174;28;20041;-71
2022/05/26 13:20:34;;;;;;;0.00;0.00;;;;;;;;;;5049429;28;20040;-71
2022/05/26 13:23:32;;;;;;;0.20;0.10;;;;;;;;;;5046461;28;20045;-71
2022/05/26 13:26:03;;;;;;;0.68;0.17;;;;;;;;;;5049185;28;20397;-71
2022/05/26 13:28:32;;;;;;;0.03;0.03;;;;;;;;;;5045503;28;20079;-71
2022/05/26 13:34:15;;;;;;;0.00;0.00;;;;;;;;;;5049353;28;20077;-72
2022/05/26 13:36:44;;;;;;;0.00;0.00;;;;;;;;;;5039973;28;20053;-71
2022/05/26 13:39:15;;;;;;;0.22;0.00;;;;;;;;;;5043828;28;20045;-70
2022/05/26 13:41:44;;;;;;;0.03;0.03;;;;;;;;;;5039761;28;20056;-71
2022/05/26 13:44:15;;;;;;;0.10;0.10;;;;;;;;;;5041127;28;20059;-71
2022/05/26 13:46:46;;;;;;;0.00;0.00;;;;;;;;;;5046563;28;20080;-71
2022/05/26 13:49:32;;;;;;;0.10;0.10;;;;;;;;;;5045648;28;20091;-71
2022/05/26 13:52:02;;;;;;;0.10;0.10;;;;;;;;;;5003531;28;20121;-71
2022/05/26 13:54:35;;;;;;;0.00;0.00;;;;;;;;;;4998456;28;20159;-71
2022/05/26 13:57:05;;;;;;;0.00;0.00;;;;;;;;;;5007764;28;20181;-71
2022/05/26 13:59:36;;;;;;;0.00;0.00;;;;;;;;;;5007015;28;20046;-71
2022/05/26 14:02:36;;;;;;;0.10;0.10;;;;;;;;;;5007548;28;20058;-71
2022/05/26 14:05:08;;;;;;;0.00;0.00;;;;;;;;;;5002514;28;20073;-71
2022/05/26 14:07:37;;;;;;;0.05;0.05;;;;;;;;;;5002052;28;20169;-72
2022/05/26 14:10:20;;;;;;;0.00;0.00;;;;;;;;;;5002835;28;20096;-71
2022/05/26 14:16:22;;;;;;;0.15;0.15;;;;;;;;;;5003516;28;20076;-71
2022/05/26 14:18:53;;;;;;;0.10;0.10;;;;;;;;;;5006886;28;20050;-71
2022/05/26 14:21:27;;;;;;;0.20;0.10;;;;;;;;;;5003676;28;20050;-71
2022/05/26 14:23:57;;;;;;;0.10;0.10;;;;;;;;;;5004243;28;20803;-71
2022/05/26 14:26:32;;;;;;;0.00;0.00;;;;;;;;;;4996191;28;20436;-70
2022/05/26 14:29:02;;;;;;;0.00;0.00;;;;;;;;;;5008226;28;20054;-71
2022/05/26 14:31:35;;;;;;;0.20;0.20;;;;;;;;;;5007070;28;20050;-71
2022/05/26 14:34:04;;;;;;;0.25;0.15;;;;;;;;;;5010353;28;20395;-71
2022/05/26 14:36:33;;;;;;;0.15;0.15;;;;;;;;;;5004906;28;20125;-71
2022/05/26 14:39:03;;;;;;;0.00;0.00;;;;;;;;;;5005059;28;20042;-70
2022/05/26 14:41:33;;;;;;;0.10;0.10;;;;;;;;;;5010061;28;20050;-70
2022/05/26 14:44:04;;;;;;;0.00;0.00;;;;;;;;;;5009231;28;20192;-71
2022/05/26 14:46:33;;;;;;;0.00;0.00;;;;;;;;;;5006990;28;20077;-72
2022/05/26 14:49:01;;;;;;;0.05;0.05;;;;;;;;;;5003059;28;20082;-70
2022/05/26 14:51:31;;;;;;;0.20;0.20;;;;;;;;;;5028998;28;20175;-70
2022/05/26 14:56:48;;;;;;;0.30;0.30;;;;;;;;;;5050037;28;20045;-71
2022/05/26 14:59:17;;;;;;;0.10;0.10;;;;;;;;;;5046352;28;20044;-72
2022/05/26 15:01:45;;;;;;;0.10;0.10;;;;;;;;;;5043824;28;20113;-71
2022/05/26 15:04:14;;;;;;;0.05;0.05;;;;;;;;;;5047914;28;20500;-71
2022/05/26 15:06:43;;;;;;;0.17;0.10;;;;;;;;;;5039519;28;20104;-70
2022/05/26 15:09:14;;;;;;;0.10;0.10;;;;;;;;;;5045559;28;20073;-71
2022/05/26 15:11:42;;;;;;;0.20;0.20;;;;;;;;;;5049546;28;20476;-70
2022/05/26 15:14:12;;;;;;;0.05;0.00;;;;;;;;;;5050139;28;20140;-70
2022/05/26 15:16:42;;;;;;;0.03;0.03;;;;;;;;;;5045912;28;20087;-70
2022/05/26 15:19:11;;;;;;;0.00;0.00;;;;;;;;;;5048839;28;20155;-71
2022/05/26 15:21:40;;;;;;;0.10;0.10;;;;;;;;;;5051480;28;20084;-72
2022/05/26 15:24:08;;;;;;;0.10;0.10;;;;;;;;;;5049945;28;20464;-71
2022/05/26 15:26:36;;;;;;;0.08;0.08;;;;;;;;;;5050843;28;20081;-72
2022/05/26 15:29:05;;;;;;;0.00;0.00;;;;;;;;;;5050852;28;20052;-72
2022/05/26 15:31:35;;;;;;;0.10;0.10;;;;;;;;;;5051507;28;20041;-73
2022/05/26 15:34:03;;;;;;;0.00;0.00;;;;;;;;;;5038603;28;20048;-73
2022/05/26 15:36:32;;;;;;;0.30;0.10;;;;;;;;;;5047417;28;20397;-73
2022/05/26 15:39:00;;;;;;;0.15;0.15;;;;;;;;;;5048820;28;20092;-72
2022/05/26 15:41:29;;;;;;;2.15;0.08;;;;;;;;;;5052101;28;20076;-72
2022/05/26 15:43:58;;;;;;;0.05;0.05;;;;;;;;;;5050433;28;20905;-71
2022/05/26 15:46:28;;;;;;;0.20;0.20;;;;;;;;;;5045334;28;20134;-71
2022/05/26 15:48:58;;;;;;;0.00;0.00;;;;;;;;;;5050312;28;20128;-71
2022/05/26 15:51:26;;;;;;;0.05;0.05;;;;;;;;;;5050274;28;20068;-71
2022/05/26 15:53:54;;;;;;;0.10;0.10;;;;;;;;;;5051372;28;20488;-72
2022/05/26 15:56:25;;;;;;;0.13;0.13;;;;;;;;;;5041376;28;20083;-72
2022/05/26 15:58:54;;;;;;;0.08;0.05;;;;;;;;;;5047390;28;20614;-72